sensor_id;sensor_type;location;lat;lon;timestamp;P1;durP1;ratioP1;P2;durP2;ratioP2
13485;SDS011;6815;59.336;17.998;2023-04-24T00:01:39;3.67;;;2.70;;
13485;SDS011;6815;59.336;17.998;2023-04-24T00:04:05;4.03;;;2.93;;
13485;SDS011;6815;59.336;17.998;2023-04-24T00:06:32;4.27;;;3.40;;
13485;SDS011;6815;59.336;17.998;2023-04-24T00:09:01;3.37;;;3.00;;
13485;SDS011;6815;59.336;17.998;2023-04-24T00:11:27;4.13;;;3.33;;
13485;SDS011;6815;59.336;17.998;2023-04-24T00:13:53;3.13;;;2.80;;
13485;SDS011;6815;59.336;17.998;2023-04-24T00:16:19;3.63;;;2.93;;
13485;SDS011;6815;59.336;17.998;2023-04-24T00:18:45;5.53;;;3.60;;
13485;SDS011;6815;59.336;17.998;2023-04-24T00:21:10;4.33;;;2.87;;
13485;SDS011;6815;59.336;17.998;2023-04-24T00:23:36;5.27;;;3.07;;
13485;SDS011;6815;59.336;17.998;2023-04-24T00:26:03;4.13;;;3.00;;
13485;SDS011;6815;59.336;17.998;2023-04-24T00:28:28;5.10;;;2.87;;
13485;SDS011;6815;59.336;17.998;2023-04-24T00:30:54;4.00;;;3.00;;
13485;SDS011;6815;59.336;17.998;2023-04-24T00:33:19;5.57;;;2.77;;
13485;SDS011;6815;59.336;17.998;2023-04-24T00:35:45;3.13;;;2.70;;
13485;SDS011;6815;59.336;17.998;2023-04-24T00:38:10;3.60;;;2.50;;
13485;SDS011;6815;59.336;17.998;2023-04-24T00:40:36;4.43;;;2.70;;
13485;SDS011;6815;59.336;17.998;2023-04-24T00:43:01;5.33;;;3.13;;
13485;SDS011;6815;59.336;17.998;2023-04-24T00:45:27;4.20;;;2.80;;
13485;SDS011;6815;59.336;17.998;2023-04-24T00:47:53;5.70;;;2.93;;
13485;SDS011;6815;59.336;17.998;2023-04-24T00:50:18;5.67;;;3.40;;
13485;SDS011;6815;59.336;17.998;2023-04-24T00:52:46;7.03;;;3.70;;
13485;SDS011;6815;59.336;17.998;2023-04-24T00:55:12;6.13;;;3.70;;
13485;SDS011;6815;59.336;17.998;2023-04-24T00:57:37;6.97;;;3.73;;
13485;SDS011;6815;59.336;17.998;2023-04-24T01:00:04;6.70;;;3.23;;
13485;SDS011;6815;59.336;17.998;2023-04-24T01:02:32;4.53;;;3.20;;
13485;SDS011;6815;59.336;17.998;2023-04-24T01:04:59;7.37;;;3.43;;
13485;SDS011;6815;59.336;17.998;2023-04-24T01:07:26;4.70;;;2.83;;
13485;SDS011;6815;59.336;17.998;2023-04-24T01:09:52;4.37;;;2.93;;
13485;SDS011;6815;59.336;17.998;2023-04-24T01:12:18;5.70;;;3.47;;
13485;SDS011;6815;59.336;17.998;2023-04-24T01:14:44;5.80;;;3.60;;
13485;SDS011;6815;59.336;17.998;2023-04-24T01:17:10;6.73;;;3.40;;
13485;SDS011;6815;59.336;17.998;2023-04-24T01:19:37;7.40;;;3.93;;
13485;SDS011;6815;59.336;17.998;2023-04-24T01:22:03;7.10;;;3.90;;
13485;SDS011;6815;59.336;17.998;2023-04-24T01:24:37;6.73;;;4.03;;
13485;SDS011;6815;59.336;17.998;2023-04-24T01:27:02;5.33;;;3.90;;
13485;SDS011;6815;59.336;17.998;2023-04-24T01:29:28;5.93;;;3.40;;
13485;SDS011;6815;59.336;17.998;2023-04-24T01:31:54;5.10;;;3.60;;
13485;SDS011;6815;59.336;17.998;2023-04-24T01:34:20;6.17;;;3.57;;
13485;SDS011;6815;59.336;17.998;2023-04-24T01:36:45;7.00;;;3.47;;
13485;SDS011;6815;59.336;17.998;2023-04-24T01:39:11;4.80;;;2.73;;
13485;SDS011;6815;59.336;17.998;2023-04-24T01:41:37;5.00;;;2.97;;
13485;SDS011;6815;59.336;17.998;2023-04-24T01:44:03;5.33;;;3.33;;
13485;SDS011;6815;59.336;17.998;2023-04-24T01:46:28;7.83;;;3.50;;
13485;SDS011;6815;59.336;17.998;2023-04-24T01:48:55;7.90;;;4.10;;
13485;SDS011;6815;59.336;17.998;2023-04-24T01:51:21;6.07;;;3.30;;
13485;SDS011;6815;59.336;17.998;2023-04-24T01:53:46;5.50;;;3.73;;
13485;SDS011;6815;59.336;17.998;2023-04-24T01:56:12;7.43;;;3.53;;
13485;SDS011;6815;59.336;17.998;2023-04-24T01:58:39;6.83;;;3.70;;
13485;SDS011;6815;59.336;17.998;2023-04-24T02:01:06;5.97;;;3.47;;
13485;SDS011;6815;59.336;17.998;2023-04-24T02:03:31;7.10;;;4.17;;
13485;SDS011;6815;59.336;17.998;2023-04-24T02:05:57;6.90;;;3.70;;
13485;SDS011;6815;59.336;17.998;2023-04-24T02:08:22;6.17;;;3.17;;
13485;SDS011;6815;59.336;17.998;2023-04-24T02:10:48;4.63;;;2.93;;
13485;SDS011;6815;59.336;17.998;2023-04-24T02:13:13;3.47;;;2.60;;
13485;SDS011;6815;59.336;17.998;2023-04-24T02:15:38;4.53;;;2.90;;
13485;SDS011;6815;59.336;17.998;2023-04-24T02:18:04;6.17;;;2.57;;
13485;SDS011;6815;59.336;17.998;2023-04-24T02:20:29;3.40;;;2.30;;
13485;SDS011;6815;59.336;17.998;2023-04-24T02:22:55;5.50;;;2.53;;
13485;SDS011;6815;59.336;17.998;2023-04-24T02:25:20;3.77;;;2.40;;
13485;SDS011;6815;59.336;17.998;2023-04-24T02:27:46;3.97;;;2.33;;
13485;SDS011;6815;59.336;17.998;2023-04-24T02:30:12;4.93;;;2.00;;
13485;SDS011;6815;59.336;17.998;2023-04-24T02:32:38;3.50;;;2.50;;
13485;SDS011;6815;59.336;17.998;2023-04-24T02:35:05;5.60;;;2.20;;
13485;SDS011;6815;59.336;17.998;2023-04-24T02:37:31;5.30;;;2.60;;
13485;SDS011;6815;59.336;17.998;2023-04-24T02:39:57;5.40;;;2.97;;
13485;SDS011;6815;59.336;17.998;2023-04-24T02:42:22;4.93;;;2.50;;
13485;SDS011;6815;59.336;17.998;2023-04-24T02:44:47;4.57;;;2.87;;
13485;SDS011;6815;59.336;17.998;2023-04-24T02:47:13;8.23;;;3.13;;
13485;SDS011;6815;59.336;17.998;2023-04-24T02:49:38;6.77;;;3.20;;
13485;SDS011;6815;59.336;17.998;2023-04-24T02:52:04;8.67;;;3.17;;
13485;SDS011;6815;59.336;17.998;2023-04-24T02:54:29;6.57;;;3.10;;
13485;SDS011;6815;59.336;17.998;2023-04-24T02:56:54;5.63;;;3.20;;
13485;SDS011;6815;59.336;17.998;2023-04-24T02:59:21;8.83;;;3.20;;
13485;SDS011;6815;59.336;17.998;2023-04-24T03:01:50;6.47;;;2.97;;
13485;SDS011;6815;59.336;17.998;2023-04-24T03:04:15;8.07;;;3.73;;
13485;SDS011;6815;59.336;17.998;2023-04-24T03:06:41;8.50;;;3.63;;
13485;SDS011;6815;59.336;17.998;2023-04-24T03:09:06;6.00;;;2.90;;
13485;SDS011;6815;59.336;17.998;2023-04-24T03:11:32;9.80;;;3.20;;
13485;SDS011;6815;59.336;17.998;2023-04-24T03:13:57;7.70;;;3.10;;
13485;SDS011;6815;59.336;17.998;2023-04-24T03:16:23;10.47;;;4.20;;
13485;SDS011;6815;59.336;17.998;2023-04-24T03:18:48;8.47;;;3.70;;
13485;SDS011;6815;59.336;17.998;2023-04-24T03:21:13;8.93;;;4.00;;
13485;SDS011;6815;59.336;17.998;2023-04-24T03:23:39;7.83;;;3.60;;
13485;SDS011;6815;59.336;17.998;2023-04-24T03:26:05;8.60;;;3.53;;
13485;SDS011;6815;59.336;17.998;2023-04-24T03:28:30;6.97;;;3.33;;
13485;SDS011;6815;59.336;17.998;2023-04-24T03:30:55;8.67;;;4.07;;
13485;SDS011;6815;59.336;17.998;2023-04-24T03:33:21;8.47;;;4.23;;
13485;SDS011;6815;59.336;17.998;2023-04-24T03:35:46;8.47;;;4.23;;
13485;SDS011;6815;59.336;17.998;2023-04-24T03:38:12;8.53;;;3.83;;
13485;SDS011;6815;59.336;17.998;2023-04-24T03:40:37;9.93;;;4.00;;
13485;SDS011;6815;59.336;17.998;2023-04-24T03:43:02;8.33;;;4.47;;
13485;SDS011;6815;59.336;17.998;2023-04-24T03:45:28;8.37;;;4.07;;
13485;SDS011;6815;59.336;17.998;2023-04-24T03:47:53;9.40;;;4.30;;
13485;SDS011;6815;59.336;17.998;2023-04-24T03:50:19;9.93;;;4.17;;
13485;SDS011;6815;59.336;17.998;2023-04-24T03:52:45;10.23;;;4.00;;
13485;SDS011;6815;59.336;17.998;2023-04-24T03:55:10;7.27;;;3.60;;
13485;SDS011;6815;59.336;17.998;2023-04-24T03:57:37;11.13;;;4.23;;
13485;SDS011;6815;59.336;17.998;2023-04-24T04:00:04;9.20;;;4.83;;
13485;SDS011;6815;59.336;17.998;2023-04-24T04:02:30;10.60;;;4.83;;
13485;SDS011;6815;59.336;17.998;2023-04-24T04:04:56;8.23;;;4.40;;
13485;SDS011;6815;59.336;17.998;2023-04-24T04:07:21;9.77;;;4.80;;
13485;SDS011;6815;59.336;17.998;2023-04-24T04:09:46;11.13;;;5.20;;
13485;SDS011;6815;59.336;17.998;2023-04-24T04:12:12;8.87;;;4.37;;
13485;SDS011;6815;59.336;17.998;2023-04-24T04:14:37;8.87;;;4.47;;
13485;SDS011;6815;59.336;17.998;2023-04-24T04:17:03;7.47;;;4.03;;
13485;SDS011;6815;59.336;17.998;2023-04-24T04:19:28;9.80;;;4.53;;
13485;SDS011;6815;59.336;17.998;2023-04-24T04:21:54;7.43;;;4.13;;
13485;SDS011;6815;59.336;17.998;2023-04-24T04:24:21;6.90;;;4.23;;
13485;SDS011;6815;59.336;17.998;2023-04-24T04:26:47;9.30;;;3.80;;
13485;SDS011;6815;59.336;17.998;2023-04-24T04:29:16;8.27;;;4.37;;
13485;SDS011;6815;59.336;17.998;2023-04-24T04:31:43;7.77;;;3.73;;
13485;SDS011;6815;59.336;17.998;2023-04-24T04:34:09;9.67;;;4.20;;
13485;SDS011;6815;59.336;17.998;2023-04-24T04:36:34;7.07;;;3.93;;
13485;SDS011;6815;59.336;17.998;2023-04-24T04:39:02;8.53;;;3.93;;
13485;SDS011;6815;59.336;17.998;2023-04-24T04:41:29;7.13;;;4.47;;
13485;SDS011;6815;59.336;17.998;2023-04-24T04:43:55;7.97;;;4.00;;
13485;SDS011;6815;59.336;17.998;2023-04-24T04:46:23;11.20;;;4.97;;
13485;SDS011;6815;59.336;17.998;2023-04-24T04:48:51;8.90;;;4.50;;
13485;SDS011;6815;59.336;17.998;2023-04-24T04:51:17;8.43;;;4.30;;
13485;SDS011;6815;59.336;17.998;2023-04-24T04:53:42;8.37;;;4.50;;
13485;SDS011;6815;59.336;17.998;2023-04-24T04:56:07;9.03;;;4.80;;
13485;SDS011;6815;59.336;17.998;2023-04-24T04:58:33;7.97;;;4.00;;
13485;SDS011;6815;59.336;17.998;2023-04-24T05:00:58;9.57;;;4.30;;
13485;SDS011;6815;59.336;17.998;2023-04-24T05:03:24;10.70;;;4.90;;
13485;SDS011;6815;59.336;17.998;2023-04-24T05:05:49;9.83;;;4.30;;
13485;SDS011;6815;59.336;17.998;2023-04-24T05:08:15;10.10;;;4.17;;
13485;SDS011;6815;59.336;17.998;2023-04-24T05:10:40;7.87;;;4.20;;
13485;SDS011;6815;59.336;17.998;2023-04-24T05:13:06;7.77;;;4.37;;
13485;SDS011;6815;59.336;17.998;2023-04-24T05:15:31;6.30;;;3.93;;
13485;SDS011;6815;59.336;17.998;2023-04-24T05:17:57;8.03;;;4.57;;
13485;SDS011;6815;59.336;17.998;2023-04-24T05:20:22;11.50;;;4.60;;
13485;SDS011;6815;59.336;17.998;2023-04-24T05:22:47;8.10;;;4.20;;
13485;SDS011;6815;59.336;17.998;2023-04-24T05:25:13;7.63;;;4.63;;
13485;SDS011;6815;59.336;17.998;2023-04-24T05:27:38;7.87;;;4.50;;
13485;SDS011;6815;59.336;17.998;2023-04-24T05:30:04;10.50;;;4.10;;
13485;SDS011;6815;59.336;17.998;2023-04-24T05:32:32;6.23;;;3.90;;
13485;SDS011;6815;59.336;17.998;2023-04-24T05:34:58;8.17;;;3.63;;
13485;SDS011;6815;59.336;17.998;2023-04-24T05:37:23;5.60;;;3.70;;
13485;SDS011;6815;59.336;17.998;2023-04-24T05:39:49;6.17;;;3.47;;
13485;SDS011;6815;59.336;17.998;2023-04-24T05:42:14;5.90;;;3.10;;
13485;SDS011;6815;59.336;17.998;2023-04-24T05:44:40;6.50;;;2.90;;
13485;SDS011;6815;59.336;17.998;2023-04-24T05:47:05;5.00;;;3.17;;
13485;SDS011;6815;59.336;17.998;2023-04-24T05:49:31;6.67;;;3.07;;
13485;SDS011;6815;59.336;17.998;2023-04-24T05:51:56;3.73;;;2.17;;
13485;SDS011;6815;59.336;17.998;2023-04-24T05:54:22;3.53;;;2.63;;
13485;SDS011;6815;59.336;17.998;2023-04-24T05:56:48;4.53;;;2.70;;
13485;SDS011;6815;59.336;17.998;2023-04-24T05:59:15;3.23;;;2.17;;
13485;SDS011;6815;59.336;17.998;2023-04-24T06:01:41;5.03;;;2.50;;
13485;SDS011;6815;59.336;17.998;2023-04-24T06:04:06;3.63;;;2.40;;
13485;SDS011;6815;59.336;17.998;2023-04-24T06:06:32;5.10;;;2.80;;
13485;SDS011;6815;59.336;17.998;2023-04-24T06:08:58;5.40;;;2.83;;
13485;SDS011;6815;59.336;17.998;2023-04-24T06:11:24;6.37;;;3.10;;
13485;SDS011;6815;59.336;17.998;2023-04-24T06:13:50;3.93;;;2.43;;
13485;SDS011;6815;59.336;17.998;2023-04-24T06:16:15;4.17;;;2.70;;
13485;SDS011;6815;59.336;17.998;2023-04-24T06:18:41;6.33;;;3.37;;
13485;SDS011;6815;59.336;17.998;2023-04-24T06:21:06;7.10;;;3.40;;
13485;SDS011;6815;59.336;17.998;2023-04-24T06:23:31;5.30;;;2.53;;
13485;SDS011;6815;59.336;17.998;2023-04-24T06:25:58;4.70;;;2.23;;
13485;SDS011;6815;59.336;17.998;2023-04-24T06:28:24;5.33;;;2.53;;
13485;SDS011;6815;59.336;17.998;2023-04-24T06:30:50;3.80;;;2.50;;
13485;SDS011;6815;59.336;17.998;2023-04-24T06:33:16;3.43;;;2.07;;
13485;SDS011;6815;59.336;17.998;2023-04-24T06:35:41;6.77;;;2.80;;
13485;SDS011;6815;59.336;17.998;2023-04-24T06:38:07;4.30;;;2.67;;
13485;SDS011;6815;59.336;17.998;2023-04-24T06:40:32;5.80;;;2.83;;
13485;SDS011;6815;59.336;17.998;2023-04-24T06:42:58;3.87;;;2.40;;
13485;SDS011;6815;59.336;17.998;2023-04-24T06:45:27;6.10;;;2.50;;
13485;SDS011;6815;59.336;17.998;2023-04-24T06:47:53;6.00;;;2.50;;
13485;SDS011;6815;59.336;17.998;2023-04-24T06:50:20;8.17;;;2.63;;
13485;SDS011;6815;59.336;17.998;2023-04-24T06:52:46;5.57;;;2.60;;
13485;SDS011;6815;59.336;17.998;2023-04-24T06:55:14;4.87;;;2.50;;
13485;SDS011;6815;59.336;17.998;2023-04-24T06:57:41;4.70;;;2.63;;
13485;SDS011;6815;59.336;17.998;2023-04-24T07:00:07;5.77;;;2.97;;
13485;SDS011;6815;59.336;17.998;2023-04-24T07:02:34;4.53;;;2.43;;
13485;SDS011;6815;59.336;17.998;2023-04-24T07:05:00;3.53;;;2.40;;
13485;SDS011;6815;59.336;17.998;2023-04-24T07:07:26;5.73;;;2.80;;
13485;SDS011;6815;59.336;17.998;2023-04-24T07:09:52;5.17;;;3.10;;
13485;SDS011;6815;59.336;17.998;2023-04-24T07:12:19;4.47;;;2.73;;
13485;SDS011;6815;59.336;17.998;2023-04-24T07:14:46;3.90;;;2.47;;
13485;SDS011;6815;59.336;17.998;2023-04-24T07:17:12;3.63;;;2.20;;
13485;SDS011;6815;59.336;17.998;2023-04-24T07:19:38;3.47;;;2.60;;
13485;SDS011;6815;59.336;17.998;2023-04-24T07:22:03;3.27;;;2.23;;
13485;SDS011;6815;59.336;17.998;2023-04-24T07:24:29;4.23;;;2.30;;
13485;SDS011;6815;59.336;17.998;2023-04-24T07:26:57;4.17;;;2.37;;
13485;SDS011;6815;59.336;17.998;2023-04-24T07:29:22;14.30;;;3.10;;
13485;SDS011;6815;59.336;17.998;2023-04-24T07:31:48;4.43;;;1.90;;
13485;SDS011;6815;59.336;17.998;2023-04-24T07:34:13;4.33;;;2.03;;
13485;SDS011;6815;59.336;17.998;2023-04-24T07:36:39;5.90;;;2.47;;
13485;SDS011;6815;59.336;17.998;2023-04-24T07:39:06;4.37;;;2.20;;
13485;SDS011;6815;59.336;17.998;2023-04-24T07:41:33;2.47;;;1.90;;
13485;SDS011;6815;59.336;17.998;2023-04-24T07:43:58;2.53;;;1.83;;
13485;SDS011;6815;59.336;17.998;2023-04-24T07:46:24;4.33;;;2.43;;
13485;SDS011;6815;59.336;17.998;2023-04-24T07:48:50;4.60;;;2.13;;
13485;SDS011;6815;59.336;17.998;2023-04-24T07:51:15;5.30;;;2.40;;
13485;SDS011;6815;59.336;17.998;2023-04-24T07:53:41;3.80;;;2.10;;
13485;SDS011;6815;59.336;17.998;2023-04-24T07:56:07;5.30;;;2.80;;
13485;SDS011;6815;59.336;17.998;2023-04-24T07:58:33;3.73;;;2.30;;
13485;SDS011;6815;59.336;17.998;2023-04-24T08:00:59;4.93;;;2.33;;
13485;SDS011;6815;59.336;17.998;2023-04-24T08:03:25;6.37;;;3.00;;
13485;SDS011;6815;59.336;17.998;2023-04-24T08:05:50;4.97;;;2.87;;
13485;SDS011;6815;59.336;17.998;2023-04-24T08:08:16;5.60;;;3.63;;
13485;SDS011;6815;59.336;17.998;2023-04-24T08:10:42;7.63;;;3.57;;
13485;SDS011;6815;59.336;17.998;2023-04-24T08:13:08;6.03;;;3.40;;
13485;SDS011;6815;59.336;17.998;2023-04-24T08:15:33;6.80;;;3.20;;
13485;SDS011;6815;59.336;17.998;2023-04-24T08:17:59;5.30;;;2.60;;
13485;SDS011;6815;59.336;17.998;2023-04-24T08:20:25;3.73;;;2.73;;
13485;SDS011;6815;59.336;17.998;2023-04-24T08:22:50;2.97;;;2.43;;
13485;SDS011;6815;59.336;17.998;2023-04-24T08:25:16;7.10;;;3.17;;
13485;SDS011;6815;59.336;17.998;2023-04-24T08:27:42;3.97;;;2.17;;
13485;SDS011;6815;59.336;17.998;2023-04-24T08:30:08;5.23;;;2.30;;
13485;SDS011;6815;59.336;17.998;2023-04-24T08:32:34;3.73;;;2.20;;
13485;SDS011;6815;59.336;17.998;2023-04-24T08:35:00;3.87;;;2.10;;
13485;SDS011;6815;59.336;17.998;2023-04-24T08:37:26;3.07;;;2.00;;
13485;SDS011;6815;59.336;17.998;2023-04-24T08:39:52;4.23;;;2.40;;
13485;SDS011;6815;59.336;17.998;2023-04-24T08:42:19;3.17;;;2.30;;
13485;SDS011;6815;59.336;17.998;2023-04-24T08:44:45;3.30;;;2.40;;
13485;SDS011;6815;59.336;17.998;2023-04-24T08:47:11;6.70;;;2.20;;
13485;SDS011;6815;59.336;17.998;2023-04-24T08:49:37;3.13;;;1.80;;
13485;SDS011;6815;59.336;17.998;2023-04-24T08:52:07;4.07;;;1.83;;
13485;SDS011;6815;59.336;17.998;2023-04-24T08:54:36;4.23;;;1.77;;
13485;SDS011;6815;59.336;17.998;2023-04-24T08:57:03;4.30;;;2.00;;
13485;SDS011;6815;59.336;17.998;2023-04-24T08:59:29;6.00;;;2.30;;
13485;SDS011;6815;59.336;17.998;2023-04-24T09:01:56;2.80;;;2.00;;
13485;SDS011;6815;59.336;17.998;2023-04-24T09:04:22;3.47;;;1.60;;
13485;SDS011;6815;59.336;17.998;2023-04-24T09:06:50;2.20;;;1.80;;
13485;SDS011;6815;59.336;17.998;2023-04-24T09:09:16;2.37;;;1.70;;
13485;SDS011;6815;59.336;17.998;2023-04-24T09:11:43;4.87;;;2.07;;
13485;SDS011;6815;59.336;17.998;2023-04-24T09:14:09;5.63;;;2.00;;
13485;SDS011;6815;59.336;17.998;2023-04-24T09:16:36;2.77;;;2.17;;
13485;SDS011;6815;59.336;17.998;2023-04-24T09:19:03;3.17;;;2.03;;
13485;SDS011;6815;59.336;17.998;2023-04-24T09:21:32;3.73;;;2.03;;
13485;SDS011;6815;59.336;17.998;2023-04-24T09:23:59;3.03;;;1.90;;
13485;SDS011;6815;59.336;17.998;2023-04-24T09:26:28;3.80;;;2.30;;
13485;SDS011;6815;59.336;17.998;2023-04-24T09:28:58;4.43;;;2.13;;
13485;SDS011;6815;59.336;17.998;2023-04-24T09:31:26;2.63;;;1.90;;
13485;SDS011;6815;59.336;17.998;2023-04-24T09:33:56;2.77;;;2.10;;
13485;SDS011;6815;59.336;17.998;2023-04-24T09:36:27;3.93;;;2.50;;
13485;SDS011;6815;59.336;17.998;2023-04-24T09:39:02;3.53;;;2.13;;
13485;SDS011;6815;59.336;17.998;2023-04-24T09:41:31;3.83;;;2.17;;
13485;SDS011;6815;59.336;17.998;2023-04-24T09:43:58;4.17;;;2.27;;
13485;SDS011;6815;59.336;17.998;2023-04-24T09:46:51;2.50;;;2.30;;
13485;SDS011;6815;59.336;17.998;2023-04-24T09:49:22;8.60;;;3.67;;
13485;SDS011;6815;59.336;17.998;2023-04-24T09:51:49;5.00;;;2.73;;
13485;SDS011;6815;59.336;17.998;2023-04-24T09:54:16;6.47;;;2.67;;
13485;SDS011;6815;59.336;17.998;2023-04-24T09:56:46;3.77;;;2.30;;
13485;SDS011;6815;59.336;17.998;2023-04-24T09:59:16;4.20;;;2.30;;
13485;SDS011;6815;59.336;17.998;2023-04-24T10:01:44;3.43;;;2.80;;
13485;SDS011;6815;59.336;17.998;2023-04-24T10:06:42;4.20;;;2.67;;
13485;SDS011;6815;59.336;17.998;2023-04-24T10:09:08;2.70;;;2.50;;
13485;SDS011;6815;59.336;17.998;2023-04-24T10:11:36;7.27;;;2.67;;
13485;SDS011;6815;59.336;17.998;2023-04-24T10:14:02;7.23;;;2.50;;
13485;SDS011;6815;59.336;17.998;2023-04-24T10:16:29;3.60;;;2.23;;
13485;SDS011;6815;59.336;17.998;2023-04-24T10:18:56;5.17;;;2.57;;
13485;SDS011;6815;59.336;17.998;2023-04-24T10:21:26;4.47;;;2.53;;
13485;SDS011;6815;59.336;17.998;2023-04-24T10:23:52;5.10;;;2.30;;
13485;SDS011;6815;59.336;17.998;2023-04-24T10:26:19;3.77;;;2.40;;
13485;SDS011;6815;59.336;17.998;2023-04-24T10:28:47;6.07;;;2.57;;
13485;SDS011;6815;59.336;17.998;2023-04-24T10:31:13;10.70;;;4.10;;
13485;SDS011;6815;59.336;17.998;2023-04-24T10:33:40;5.60;;;2.70;;
13485;SDS011;6815;59.336;17.998;2023-04-24T10:36:07;8.93;;;2.87;;
13485;SDS011;6815;59.336;17.998;2023-04-24T10:38:38;3.40;;;2.23;;
13485;SDS011;6815;59.336;17.998;2023-04-24T10:41:06;4.73;;;2.83;;
13485;SDS011;6815;59.336;17.998;2023-04-24T10:43:41;7.97;;;2.93;;
13485;SDS011;6815;59.336;17.998;2023-04-24T10:46:08;5.00;;;2.50;;
13485;SDS011;6815;59.336;17.998;2023-04-24T10:48:35;12.70;;;4.73;;
13485;SDS011;6815;59.336;17.998;2023-04-24T10:51:01;11.33;;;4.80;;
13485;SDS011;6815;59.336;17.998;2023-04-24T10:53:28;5.70;;;3.40;;
13485;SDS011;6815;59.336;17.998;2023-04-24T10:55:58;6.77;;;2.93;;
13485;SDS011;6815;59.336;17.998;2023-04-24T11:01:03;5.87;;;3.03;;
13485;SDS011;6815;59.336;17.998;2023-04-24T11:03:31;3.23;;;2.40;;
13485;SDS011;6815;59.336;17.998;2023-04-24T11:08:27;5.33;;;2.77;;
13485;SDS011;6815;59.336;17.998;2023-04-24T11:24:22;4.80;;;2.40;;
13485;SDS011;6815;59.336;17.998;2023-04-24T11:32:42;3.20;;;1.90;;
13485;SDS011;6815;59.336;17.998;2023-04-24T11:35:15;4.03;;;2.50;;
13485;SDS011;6815;59.336;17.998;2023-04-24T11:37:46;5.20;;;2.97;;
13485;SDS011;6815;59.336;17.998;2023-04-24T11:40:15;3.50;;;2.27;;
13485;SDS011;6815;59.336;17.998;2023-04-24T11:42:44;4.47;;;2.67;;
13485;SDS011;6815;59.336;17.998;2023-04-24T11:45:15;3.27;;;2.30;;
13485;SDS011;6815;59.336;17.998;2023-04-24T11:47:46;2.87;;;2.47;;
13485;SDS011;6815;59.336;17.998;2023-04-24T11:50:13;5.93;;;3.27;;
13485;SDS011;6815;59.336;17.998;2023-04-24T11:52:40;4.50;;;2.40;;
13485;SDS011;6815;59.336;17.998;2023-04-24T11:57:59;5.70;;;2.80;;
13485;SDS011;6815;59.336;17.998;2023-04-24T12:00:26;6.40;;;3.50;;
13485;SDS011;6815;59.336;17.998;2023-04-24T12:05:48;8.80;;;3.17;;
13485;SDS011;6815;59.336;17.998;2023-04-24T12:08:26;5.10;;;3.10;;
13485;SDS011;6815;59.336;17.998;2023-04-24T12:10:53;3.70;;;2.80;;
13485;SDS011;6815;59.336;17.998;2023-04-24T12:13:18;6.80;;;3.27;;
13485;SDS011;6815;59.336;17.998;2023-04-24T12:15:44;3.77;;;3.20;;
13485;SDS011;6815;59.336;17.998;2023-04-24T12:18:11;5.03;;;3.10;;
13485;SDS011;6815;59.336;17.998;2023-04-24T12:20:40;5.93;;;3.60;;
13485;SDS011;6815;59.336;17.998;2023-04-24T12:23:06;6.13;;;3.80;;
13485;SDS011;6815;59.336;17.998;2023-04-24T12:25:32;5.43;;;3.53;;
13485;SDS011;6815;59.336;17.998;2023-04-24T12:30:29;7.57;;;2.93;;
13485;SDS011;6815;59.336;17.998;2023-04-24T12:32:57;4.37;;;3.10;;
13485;SDS011;6815;59.336;17.998;2023-04-24T12:35:23;5.87;;;3.43;;
13485;SDS011;6815;59.336;17.998;2023-04-24T12:37:52;5.63;;;3.60;;
13485;SDS011;6815;59.336;17.998;2023-04-24T12:40:19;6.23;;;3.00;;
13485;SDS011;6815;59.336;17.998;2023-04-24T12:42:46;4.57;;;3.30;;
13485;SDS011;6815;59.336;17.998;2023-04-24T12:45:32;5.23;;;3.63;;
13485;SDS011;6815;59.336;17.998;2023-04-24T12:47:57;5.53;;;3.27;;
13485;SDS011;6815;59.336;17.998;2023-04-24T12:50:23;6.37;;;3.10;;
13485;SDS011;6815;59.336;17.998;2023-04-24T12:52:51;4.23;;;3.13;;
13485;SDS011;6815;59.336;17.998;2023-04-24T12:55:17;5.03;;;3.40;;
13485;SDS011;6815;59.336;17.998;2023-04-24T12:57:43;7.77;;;3.80;;
13485;SDS011;6815;59.336;17.998;2023-04-24T13:00:09;5.50;;;3.03;;
13485;SDS011;6815;59.336;17.998;2023-04-24T13:02:35;4.67;;;3.30;;
13485;SDS011;6815;59.336;17.998;2023-04-24T13:05:00;4.83;;;3.80;;
13485;SDS011;6815;59.336;17.998;2023-04-24T13:07:26;5.03;;;3.57;;
13485;SDS011;6815;59.336;17.998;2023-04-24T13:09:53;7.23;;;3.47;;
13485;SDS011;6815;59.336;17.998;2023-04-24T13:12:20;4.47;;;3.53;;
13485;SDS011;6815;59.336;17.998;2023-04-24T13:14:46;7.10;;;4.03;;
13485;SDS011;6815;59.336;17.998;2023-04-24T13:17:12;6.80;;;4.00;;
13485;SDS011;6815;59.336;17.998;2023-04-24T13:19:38;6.27;;;4.10;;
13485;SDS011;6815;59.336;17.998;2023-04-24T13:22:05;4.00;;;3.30;;
13485;SDS011;6815;59.336;17.998;2023-04-24T13:24:31;5.47;;;3.63;;
13485;SDS011;6815;59.336;17.998;2023-04-24T13:26:58;6.83;;;3.90;;
13485;SDS011;6815;59.336;17.998;2023-04-24T13:29:24;4.90;;;3.60;;
13485;SDS011;6815;59.336;17.998;2023-04-24T13:31:50;5.87;;;3.70;;
13485;SDS011;6815;59.336;17.998;2023-04-24T13:34:21;6.47;;;3.80;;
13485;SDS011;6815;59.336;17.998;2023-04-24T13:36:53;7.60;;;3.87;;
13485;SDS011;6815;59.336;17.998;2023-04-24T13:39:19;6.10;;;3.97;;
13485;SDS011;6815;59.336;17.998;2023-04-24T13:41:45;5.73;;;4.07;;
13485;SDS011;6815;59.336;17.998;2023-04-24T13:44:13;5.83;;;3.77;;
13485;SDS011;6815;59.336;17.998;2023-04-24T13:46:41;6.30;;;3.43;;
13485;SDS011;6815;59.336;17.998;2023-04-24T13:49:07;4.87;;;3.30;;
13485;SDS011;6815;59.336;17.998;2023-04-24T13:51:33;6.03;;;4.00;;
13485;SDS011;6815;59.336;17.998;2023-04-24T13:53:58;5.03;;;3.40;;
13485;SDS011;6815;59.336;17.998;2023-04-24T13:56:24;6.20;;;3.60;;
13485;SDS011;6815;59.336;17.998;2023-04-24T13:58:50;10.90;;;4.37;;
13485;SDS011;6815;59.336;17.998;2023-04-24T14:01:16;5.00;;;3.57;;
13485;SDS011;6815;59.336;17.998;2023-04-24T14:03:42;4.73;;;3.70;;
13485;SDS011;6815;59.336;17.998;2023-04-24T14:06:10;7.53;;;3.53;;
13485;SDS011;6815;59.336;17.998;2023-04-24T14:08:35;5.73;;;3.53;;
13485;SDS011;6815;59.336;17.998;2023-04-24T14:11:01;8.17;;;3.57;;
13485;SDS011;6815;59.336;17.998;2023-04-24T14:13:26;6.10;;;4.20;;
13485;SDS011;6815;59.336;17.998;2023-04-24T14:15:52;5.23;;;3.57;;
13485;SDS011;6815;59.336;17.998;2023-04-24T14:18:18;8.67;;;4.40;;
13485;SDS011;6815;59.336;17.998;2023-04-24T14:20:44;6.90;;;3.93;;
13485;SDS011;6815;59.336;17.998;2023-04-24T14:23:11;8.40;;;3.80;;
13485;SDS011;6815;59.336;17.998;2023-04-24T14:25:36;6.20;;;4.00;;
13485;SDS011;6815;59.336;17.998;2023-04-24T14:28:02;9.00;;;4.23;;
13485;SDS011;6815;59.336;17.998;2023-04-24T14:30:27;6.07;;;3.57;;
13485;SDS011;6815;59.336;17.998;2023-04-24T14:32:53;5.93;;;4.03;;
13485;SDS011;6815;59.336;17.998;2023-04-24T14:35:19;7.03;;;3.80;;
13485;SDS011;6815;59.336;17.998;2023-04-24T14:37:45;8.63;;;4.07;;
13485;SDS011;6815;59.336;17.998;2023-04-24T14:40:10;6.90;;;4.00;;
13485;SDS011;6815;59.336;17.998;2023-04-24T14:42:36;7.27;;;3.70;;
13485;SDS011;6815;59.336;17.998;2023-04-24T14:45:02;8.73;;;4.13;;
13485;SDS011;6815;59.336;17.998;2023-04-24T14:47:28;6.73;;;3.70;;
13485;SDS011;6815;59.336;17.998;2023-04-24T14:49:58;8.03;;;4.20;;
13485;SDS011;6815;59.336;17.998;2023-04-24T14:52:23;5.80;;;3.50;;
13485;SDS011;6815;59.336;17.998;2023-04-24T14:54:48;10.00;;;3.67;;
13485;SDS011;6815;59.336;17.998;2023-04-24T14:57:14;6.50;;;4.00;;
13485;SDS011;6815;59.336;17.998;2023-04-24T14:59:39;6.00;;;3.47;;
13485;SDS011;6815;59.336;17.998;2023-04-24T15:02:07;5.20;;;3.37;;
13485;SDS011;6815;59.336;17.998;2023-04-24T15:04:32;8.87;;;4.20;;
13485;SDS011;6815;59.336;17.998;2023-04-24T15:06:57;6.27;;;3.87;;
13485;SDS011;6815;59.336;17.998;2023-04-24T15:09:23;7.73;;;3.27;;
13485;SDS011;6815;59.336;17.998;2023-04-24T15:11:50;5.70;;;3.70;;
13485;SDS011;6815;59.336;17.998;2023-04-24T15:14:16;4.60;;;3.60;;
13485;SDS011;6815;59.336;17.998;2023-04-24T15:16:43;5.23;;;3.30;;
13485;SDS011;6815;59.336;17.998;2023-04-24T15:19:08;6.67;;;3.60;;